Sterling Forest, New York
Current Conditions -  °F | °C
As of 6:53 PM on Thursday 18 Dec 2014 (Local Time) from KFWN Reporting Station
Overcast Overcast  
Wind Chill: 36°   Ceiling: 2700
Heat Index: 36°   Visibility: 10mi
Dew Point: 26°   Wind: 3mph
Humidity: 67%   Direction: 320°NW
Pressure: 29.97"   Gusts: NA
Location:  41.18°N, 74.31°W
Report Text: KFWN 182353Z AUTO 32003KT 10SM OVC027 02/M03 A2997 RMK AO2 SLP152 T00221033 10039 20022 58002
Loading
Personal Weather Stations






























Interactive Weather Map New forecast layout! Learn more

10-Day Weather Forecast

Advertisements
Track Severe Weather on mobile